createdAt,value
2018-09-05T00:01:06.128Z,21.16
2018-09-05T00:03:30.001Z,21.16
2018-09-05T00:05:53.833Z,21.03
2018-09-05T00:08:17.714Z,20.90
2018-09-05T00:10:41.585Z,20.94
2018-09-05T00:13:05.802Z,20.95
2018-09-05T00:15:29.655Z,20.93
2018-09-05T00:17:53.607Z,20.85
2018-09-05T00:20:17.437Z,20.57
2018-09-05T00:22:41.359Z,20.50
2018-09-05T00:25:05.219Z,20.40
2018-09-05T00:27:29.096Z,20.27
2018-09-05T00:29:53.051Z,20.11
2018-09-05T00:32:17.099Z,19.93
2018-09-05T00:34:40.982Z,20.04
2018-09-05T00:37:04.958Z,19.89
2018-09-05T00:39:28.859Z,19.92
2018-09-05T00:41:52.751Z,19.69
2018-09-05T00:44:16.650Z,19.89
2018-09-05T00:46:40.527Z,19.68
2018-09-05T00:49:04.435Z,19.47
2018-09-05T00:51:28.336Z,19.58
2018-09-05T00:53:52.268Z,19.35
2018-09-05T00:56:16.194Z,19.50
2018-09-05T00:58:40.102Z,19.43
2018-09-05T01:01:04.018Z,19.42
2018-09-05T01:03:28.914Z,19.50
2018-09-05T01:05:52.929Z,19.48
2018-09-05T01:08:17.011Z,19.43
2018-09-05T01:10:40.878Z,19.62
2018-09-05T01:13:04.733Z,19.76
2018-09-05T01:15:28.629Z,19.72
2018-09-05T01:17:52.538Z,19.68
2018-09-05T01:20:16.412Z,19.64
2018-09-05T01:22:40.319Z,19.37
2018-09-05T01:25:04.216Z,19.59
2018-09-05T01:27:28.133Z,19.51
2018-09-05T01:29:51.999Z,19.44
2018-09-05T01:32:15.876Z,19.58
2018-09-05T01:34:40.378Z,19.69
2018-09-05T01:37:04.262Z,19.64
2018-09-05T01:39:28.151Z,19.58
2018-09-05T01:41:51.988Z,19.65
2018-09-05T01:44:15.908Z,19.48
2018-09-05T01:46:39.794Z,19.51
2018-09-05T01:49:03.672Z,19.36
2018-09-05T01:51:29.879Z,19.41
2018-09-05T01:53:53.808Z,19.24
2018-09-05T01:56:17.686Z,19.06
2018-09-05T01:58:41.596Z,19.09
2018-09-05T02:01:05.437Z,19.02
2018-09-05T02:03:29.324Z,18.78
2018-09-05T02:05:53.198Z,18.69
2018-09-05T02:08:17.142Z,18.57
2018-09-05T02:10:40.963Z,18.63
2018-09-05T02:13:04.911Z,18.46
2018-09-05T02:15:28.766Z,18.78
2018-09-05T02:17:52.886Z,18.66
2018-09-05T02:20:16.739Z,18.48
2018-09-05T02:22:40.618Z,18.26
2018-09-05T02:25:04.495Z,18.16
2018-09-05T02:27:28.361Z,18.05
2018-09-05T02:29:52.351Z,17.89
2018-09-05T02:32:16.197Z,18.02
2018-09-05T02:34:40.080Z,17.99
2018-09-05T02:37:03.940Z,18.03
2018-09-05T02:39:27.819Z,17.77
2018-09-05T02:41:51.689Z,17.89
2018-09-05T02:44:20.264Z,17.91
2018-09-05T02:46:44.137Z,18.00
2018-09-05T02:49:08.023Z,18.00
2018-09-05T02:51:31.920Z,17.86
2018-09-05T02:53:55.814Z,17.95
2018-09-05T02:56:22.602Z,17.86
2018-09-05T02:58:47.194Z,17.81
2018-09-05T03:01:11.464Z,17.40
2018-09-05T03:03:35.341Z,17.31
2018-09-05T03:05:59.292Z,17.48
2018-09-05T03:08:23.300Z,17.18
2018-09-05T03:10:47.185Z,16.91
2018-09-05T03:13:11.039Z,16.70
2018-09-05T03:15:34.934Z,16.53
2018-09-05T03:17:58.808Z,16.67
2018-09-05T03:20:22.762Z,16.78
2018-09-05T03:22:46.752Z,16.86
2018-09-05T03:25:10.629Z,17.03
2018-09-05T03:27:34.492Z,16.97
2018-09-05T03:29:58.376Z,16.92
2018-09-05T03:32:22.519Z,17.13
2018-09-05T03:34:46.110Z,17.08
2018-09-05T03:37:10.025Z,16.96
2018-09-05T03:39:33.851Z,16.94
2018-09-05T03:41:57.756Z,16.56
2018-09-05T03:44:21.643Z,16.09
2018-09-05T03:46:45.497Z,16.17
2018-09-05T03:49:09.390Z,16.35
2018-09-05T03:51:33.259Z,16.31
2018-09-05T03:53:57.142Z,16.09
2018-09-05T03:56:20.989Z,15.85
2018-09-05T03:58:44.850Z,15.75
2018-09-05T04:01:08.729Z,16.16
2018-09-05T04:03:32.581Z,16.03
2018-09-05T04:05:56.465Z,16.22
2018-09-05T04:08:20.347Z,16.48
2018-09-05T04:10:44.231Z,16.81
2018-09-05T04:13:08.123Z,16.91
2018-09-05T04:15:32.000Z,17.04
2018-09-05T04:17:55.827Z,17.07
2018-09-05T04:20:19.792Z,17.26
2018-09-05T04:22:43.659Z,17.40
2018-09-05T04:25:07.546Z,17.54
2018-09-05T04:27:31.499Z,17.65
2018-09-05T04:29:55.377Z,17.69
2018-09-05T04:32:19.205Z,17.89
2018-09-05T04:34:43.058Z,17.84
2018-09-05T04:37:07.031Z,17.98
2018-09-05T04:39:30.927Z,17.94
2018-09-05T04:41:54.803Z,17.31
2018-09-05T04:44:18.695Z,17.82
2018-09-05T04:46:42.582Z,17.92
2018-09-05T04:49:06.476Z,18.05
2018-09-05T04:51:30.620Z,18.21
2018-09-05T04:53:54.517Z,18.31
2018-09-05T04:56:18.433Z,18.34
2018-09-05T04:58:42.318Z,18.32
2018-09-05T05:01:06.321Z,18.29
2018-09-05T05:03:30.210Z,18.44
2018-09-05T05:05:54.088Z,18.54
2018-09-05T05:08:17.976Z,18.16
2018-09-05T05:10:41.979Z,18.33
2018-09-05T05:13:06.066Z,18.58
2018-09-05T05:15:29.959Z,18.56
2018-09-05T05:17:53.849Z,18.50
2018-09-05T05:20:17.741Z,18.50
2018-09-05T05:22:41.605Z,18.66
2018-09-05T05:25:05.584Z,18.69
2018-09-05T05:27:29.475Z,18.64
2018-09-05T05:29:53.380Z,18.78
2018-09-05T05:32:17.297Z,18.31
2018-09-05T05:34:41.348Z,18.81
2018-09-05T05:37:05.466Z,18.84
2018-09-05T05:39:29.531Z,18.83
2018-09-05T05:41:53.435Z,18.92
2018-09-05T05:44:17.357Z,18.87
2018-09-05T05:46:41.270Z,18.88
2018-09-05T05:49:05.215Z,18.92
2018-09-05T05:51:29.108Z,19.00
2018-09-05T05:53:53.016Z,19.08
2018-09-05T05:56:16.852Z,19.14
2018-09-05T05:58:40.919Z,19.09
2018-09-05T06:01:04.928Z,19.16
2018-09-05T06:03:28.757Z,19.16
2018-09-05T06:05:52.698Z,19.20
2018-09-05T06:08:16.526Z,19.28
2018-09-05T06:10:40.446Z,18.33
2018-09-05T06:13:05.110Z,18.38
2018-09-05T06:15:29.304Z,18.87
2018-09-05T06:17:53.251Z,19.28
2018-09-05T06:20:17.110Z,19.22
2018-09-05T06:22:41.010Z,19.31
2018-09-05T06:25:04.900Z,19.34
2018-09-05T06:27:29.092Z,19.41
2018-09-05T06:29:52.984Z,19.49
2018-09-05T06:32:16.870Z,19.40
2018-09-05T06:34:40.752Z,19.42
2018-09-05T06:37:04.626Z,19.57
2018-09-05T06:39:28.558Z,19.75
2018-09-05T06:41:52.433Z,19.78
2018-09-05T06:44:16.332Z,19.79
2018-09-05T06:46:40.248Z,19.30
2018-09-05T06:49:04.143Z,19.78
2018-09-05T06:51:28.120Z,19.88
2018-09-05T06:53:51.991Z,19.92
2018-09-05T06:56:15.836Z,19.92
2018-09-05T06:58:39.716Z,20.03
2018-09-05T07:01:03.597Z,20.01
2018-09-05T07:03:27.495Z,20.10
2018-09-05T07:05:51.362Z,20.18
2018-09-05T07:08:15.277Z,20.11
2018-09-05T07:10:39.207Z,20.19
2018-09-05T07:13:03.060Z,20.08
2018-09-05T07:15:26.934Z,20.24
2018-09-05T07:17:50.780Z,20.35
2018-09-05T07:20:14.774Z,20.09
2018-09-05T07:22:38.678Z,20.26
2018-09-05T07:25:02.547Z,20.29
2018-09-05T07:27:26.469Z,20.41
2018-09-05T07:29:50.337Z,20.42
2018-09-05T07:32:14.251Z,20.49
2018-09-05T07:34:38.316Z,20.31
2018-09-05T07:37:02.213Z,20.37
2018-09-05T07:39:26.152Z,20.53
2018-09-05T07:41:50.022Z,20.53
2018-09-05T07:44:13.859Z,20.69
2018-09-05T07:46:37.784Z,20.61
2018-09-05T07:49:01.666Z,20.53
2018-09-05T07:51:25.576Z,20.79
2018-09-05T07:53:49.455Z,20.84
2018-09-05T07:56:13.312Z,20.83
2018-09-05T07:58:37.206Z,20.95
2018-09-05T08:01:01.084Z,21.04
2018-09-05T08:03:24.966Z,20.98
2018-09-05T08:05:48.819Z,21.12
2018-09-05T08:08:12.704Z,21.11
2018-09-05T08:10:36.610Z,21.08
2018-09-05T08:13:00.464Z,21.20
2018-09-05T08:15:24.370Z,21.17
2018-09-05T08:17:48.312Z,21.22
2018-09-05T08:20:12.148Z,21.18
2018-09-05T08:22:36.046Z,21.53
2018-09-05T08:25:01.229Z,21.51
2018-09-05T08:27:25.085Z,21.63
2018-09-05T08:29:49.065Z,21.45
2018-09-05T08:32:12.942Z,21.68
2018-09-05T08:34:36.888Z,21.61
2018-09-05T08:37:01.111Z,21.72
2018-09-05T08:39:24.684Z,21.91
2018-09-05T08:41:48.593Z,21.93
2018-09-05T08:44:12.732Z,21.89
2018-09-05T08:46:36.408Z,22.16
2018-09-05T08:49:00.303Z,22.28
2018-09-05T08:51:24.176Z,22.29
2018-09-05T08:53:49.178Z,22.50
2018-09-05T08:56:13.169Z,22.60
2018-09-05T08:58:37.022Z,22.71
2018-09-05T09:01:00.938Z,22.71
2018-09-05T09:03:24.863Z,22.97
2018-09-05T09:05:48.748Z,23.02
2018-09-05T09:08:12.896Z,22.81
2018-09-05T09:10:36.778Z,23.01
2018-09-05T09:13:00.686Z,22.80
2018-09-05T09:15:24.565Z,22.90
2018-09-05T09:17:48.485Z,22.89
2018-09-05T09:20:12.392Z,23.08
2018-09-05T09:22:36.274Z,22.93
2018-09-05T09:25:00.137Z,22.94
2018-09-05T09:27:24.059Z,23.28
2018-09-05T09:29:47.923Z,23.22
2018-09-05T09:32:12.028Z,23.67
2018-09-05T09:34:35.911Z,23.76
2018-09-05T09:36:59.788Z,23.34
2018-09-05T09:39:23.732Z,23.99
2018-09-05T09:41:47.591Z,23.36
2018-09-05T09:44:11.927Z,23.66
2018-09-05T09:46:36.264Z,24.37
2018-09-05T09:49:00.133Z,24.45
2018-09-05T09:51:24.447Z,24.53
2018-09-05T09:53:48.319Z,24.31
2018-09-05T09:56:12.223Z,24.24
2018-09-05T09:58:36.386Z,24.71
2018-09-05T10:01:05.496Z,24.42
2018-09-05T10:03:35.079Z,25.17
2018-09-05T10:06:03.986Z,25.33
2018-09-05T10:08:36.662Z,25.10
2018-09-05T10:11:02.593Z,25.53
2018-09-05T10:13:31.735Z,25.55
2018-09-05T10:16:01.048Z,25.14
2018-09-05T10:18:28.151Z,25.18
2018-09-05T10:20:52.097Z,25.68
2018-09-05T10:23:15.967Z,25.73
2018-09-05T10:25:40.269Z,25.85
2018-09-05T10:28:04.317Z,25.16
2018-09-05T10:30:28.152Z,24.55
2018-09-05T10:32:52.056Z,25.81
2018-09-05T10:35:15.929Z,25.91
2018-09-05T10:37:39.844Z,25.35
2018-09-05T10:40:03.800Z,26.35
2018-09-05T10:42:27.691Z,26.61
2018-09-05T10:44:51.672Z,26.52
2018-09-05T10:47:15.589Z,26.43
2018-09-05T10:49:39.464Z,26.77
2018-09-05T10:52:06.570Z,25.77
2018-09-05T10:54:30.465Z,26.38
2018-09-05T10:56:54.371Z,27.21
2018-09-05T10:59:18.304Z,27.46
2018-09-05T11:01:42.248Z,27.61
2018-09-05T11:04:06.568Z,27.64
2018-09-05T11:06:30.486Z,27.66
2018-09-05T11:08:54.490Z,27.64
2018-09-05T11:11:18.598Z,28.11
2018-09-05T11:13:42.501Z,28.39
2018-09-05T11:16:06.412Z,27.97
2018-09-05T11:18:30.330Z,27.66
2018-09-05T11:20:54.186Z,28.40
2018-09-05T11:23:18.072Z,28.83
2018-09-05T11:25:41.946Z,27.84
2018-09-05T11:28:05.831Z,27.92
2018-09-05T11:30:29.718Z,28.59
2018-09-05T11:32:53.633Z,28.59
2018-09-05T11:35:17.538Z,28.65
2018-09-05T11:37:41.443Z,28.42
2018-09-05T11:40:05.389Z,29.17
2018-09-05T11:42:29.325Z,29.32
2018-09-05T11:44:53.240Z,28.82
2018-09-05T11:47:17.106Z,28.84
2018-09-05T11:49:41.046Z,28.61
2018-09-05T11:52:04.934Z,29.50
2018-09-05T11:54:28.975Z,29.64
2018-09-05T11:56:52.852Z,28.88
2018-09-05T11:59:16.882Z,29.12
2018-09-05T12:01:40.899Z,29.97
2018-09-05T12:04:04.795Z,30.11
2018-09-05T12:06:28.662Z,30.42
2018-09-05T12:08:52.554Z,30.75
2018-09-05T12:11:16.438Z,30.68
2018-09-05T12:13:40.614Z,30.66
2018-09-05T12:16:04.492Z,30.75
2018-09-05T12:18:28.382Z,30.60
2018-09-05T12:20:52.320Z,31.42
2018-09-05T12:23:16.201Z,30.87
2018-09-05T12:25:40.125Z,31.17
2018-09-05T12:28:04.006Z,30.55
2018-09-05T12:30:27.871Z,31.34
2018-09-05T12:32:51.768Z,30.80
2018-09-05T12:35:15.700Z,31.41
2018-09-05T12:37:39.583Z,31.50
2018-09-05T12:40:03.531Z,31.96
2018-09-05T12:42:27.386Z,30.23
2018-09-05T12:44:51.318Z,29.40
2018-09-05T12:47:15.154Z,31.05
2018-09-05T12:49:39.024Z,31.80
2018-09-05T12:52:02.926Z,32.34
2018-09-05T12:54:26.795Z,31.95
2018-09-05T12:56:50.681Z,31.27
2018-09-05T12:59:14.635Z,31.88
2018-09-05T13:01:38.502Z,32.19
2018-09-05T13:04:04.152Z,31.02
2018-09-05T13:06:28.019Z,31.08
2018-09-05T13:08:51.902Z,31.28
2018-09-05T13:11:15.841Z,32.59
2018-09-05T13:13:39.685Z,32.63
2018-09-05T13:16:03.803Z,33.04
2018-09-05T13:18:27.732Z,31.94
2018-09-05T13:20:51.617Z,31.26
2018-09-05T13:23:15.490Z,32.71
2018-09-05T13:25:39.456Z,32.33
2018-09-05T13:28:03.321Z,32.79
2018-09-05T13:30:27.223Z,33.69
2018-09-05T13:32:51.210Z,32.32
2018-09-05T13:35:15.129Z,32.37
2018-09-05T13:37:38.973Z,32.24
2018-09-05T13:40:02.924Z,31.84
2018-09-05T13:42:26.835Z,33.27
2018-09-05T13:44:50.725Z,34.20
2018-09-05T13:47:14.615Z,33.10
2018-09-05T13:49:38.647Z,32.83
2018-09-05T13:52:04.733Z,32.39
2018-09-05T13:54:28.642Z,33.59
2018-09-05T13:56:52.590Z,34.40
2018-09-05T13:59:16.457Z,34.75
2018-09-05T14:01:40.441Z,34.33
2018-09-05T14:04:04.305Z,34.13
2018-09-05T14:06:28.169Z,34.82
2018-09-05T14:08:52.093Z,33.83
2018-09-05T14:11:16.002Z,34.46
2018-09-05T14:13:40.260Z,34.76
2018-09-05T14:16:04.195Z,34.38
2018-09-05T14:18:28.100Z,34.63
2018-09-05T14:20:52.102Z,34.87
2018-09-05T14:23:15.982Z,34.63
2018-09-05T14:25:39.820Z,34.44
2018-09-05T14:28:03.711Z,33.34
2018-09-05T14:30:27.608Z,34.45
2018-09-05T14:32:51.611Z,34.10
2018-09-05T14:35:15.500Z,34.80
2018-09-05T14:37:39.391Z,33.94
2018-09-05T14:40:03.376Z,34.56
2018-09-05T14:42:27.294Z,34.67
2018-09-05T14:44:51.323Z,34.40
2018-09-05T14:47:15.228Z,35.16
2018-09-05T14:49:39.123Z,34.98
2018-09-05T14:52:03.076Z,34.31
2018-09-05T14:54:27.060Z,34.72
2018-09-05T14:56:50.958Z,34.95
2018-09-05T14:59:14.841Z,34.63
2018-09-05T15:01:38.864Z,34.89
2018-09-05T15:04:02.794Z,35.19
2018-09-05T15:06:26.664Z,34.88
2018-09-05T15:08:50.760Z,34.97
2018-09-05T15:11:14.638Z,34.79
2018-09-05T15:13:38.676Z,34.80
2018-09-05T15:16:02.553Z,34.74
2018-09-05T15:18:26.446Z,34.78
2018-09-05T15:20:50.484Z,34.63
2018-09-05T15:23:14.424Z,34.47
2018-09-05T15:25:38.418Z,34.22
2018-09-05T15:28:02.336Z,34.18
2018-09-05T15:30:26.338Z,34.56
2018-09-05T15:32:50.344Z,34.33
2018-09-05T15:35:14.236Z,34.46
2018-09-05T15:37:38.084Z,34.08
2018-09-05T15:40:02.213Z,34.19
2018-09-05T15:42:26.152Z,34.04
2018-09-05T15:44:50.139Z,34.09
2018-09-05T15:47:14.064Z,33.91
2018-09-05T15:49:37.947Z,34.23
2018-09-05T15:52:01.932Z,34.06
2018-09-05T15:54:27.321Z,33.86
2018-09-05T15:56:51.592Z,33.62
2018-09-05T15:59:15.525Z,33.97
2018-09-05T16:01:39.408Z,34.10
2018-09-05T16:04:03.342Z,33.90
2018-09-05T16:06:27.302Z,33.44
2018-09-05T16:08:51.187Z,33.82
2018-09-05T16:11:15.110Z,33.82
2018-09-05T16:13:39.044Z,33.72
2018-09-05T16:16:03.240Z,33.19
2018-09-05T16:18:27.160Z,32.88
2018-09-05T16:20:51.100Z,33.07
2018-09-05T16:23:15.011Z,32.87
2018-09-05T16:25:38.978Z,32.86
2018-09-05T16:28:02.904Z,32.63
2018-09-05T16:30:26.913Z,32.17
2018-09-05T16:32:50.830Z,32.09
2018-09-05T16:35:14.737Z,32.26
2018-09-05T16:37:38.683Z,31.62
2018-09-05T16:40:02.669Z,31.58
2018-09-05T16:42:26.616Z,31.65
2018-09-05T16:44:50.507Z,31.53
2018-09-05T16:47:14.448Z,31.45
2018-09-05T16:49:38.392Z,31.47
2018-09-05T16:52:02.302Z,31.34
2018-09-05T16:54:26.190Z,31.31
2018-09-05T16:56:50.152Z,31.37
2018-09-05T16:59:14.112Z,31.23
2018-09-05T17:01:38.024Z,31.13
2018-09-05T17:04:01.932Z,30.97
2018-09-05T17:06:25.888Z,30.88
2018-09-05T17:08:49.817Z,30.98
2018-09-05T17:11:13.832Z,30.89
2018-09-05T17:13:37.692Z,30.79
2018-09-05T17:16:01.573Z,30.82
2018-09-05T17:18:25.527Z,30.59
2018-09-05T17:20:49.463Z,30.53
2018-09-05T17:23:13.776Z,30.30
2018-09-05T17:25:37.780Z,30.18
2018-09-05T17:28:01.760Z,30.28
2018-09-05T17:30:25.670Z,30.10
2018-09-05T17:32:49.577Z,30.11
2018-09-05T17:35:13.546Z,29.96
2018-09-05T17:37:37.537Z,29.92
2018-09-05T17:40:01.485Z,29.91
2018-09-05T17:42:25.423Z,29.89
2018-09-05T17:44:49.401Z,29.67
2018-09-05T17:47:13.316Z,29.73
2018-09-05T17:49:37.385Z,29.50
2018-09-05T17:52:01.326Z,29.47
2018-09-05T17:54:25.228Z,29.42
2018-09-05T17:56:49.254Z,29.14
2018-09-05T17:59:13.254Z,29.13
2018-09-05T18:01:37.236Z,29.08
2018-09-05T18:04:01.661Z,29.08
2018-09-05T18:06:25.569Z,28.84
2018-09-05T18:08:49.508Z,28.89
2018-09-05T18:11:14.027Z,28.73
2018-09-05T18:13:37.973Z,28.73
2018-09-05T18:16:01.945Z,28.70
2018-09-05T18:18:25.874Z,28.37
2018-09-05T18:20:49.766Z,28.55
2018-09-05T18:23:13.714Z,28.36
2018-09-05T18:25:37.627Z,28.44
2018-09-05T18:28:01.519Z,28.38
2018-09-05T18:30:25.599Z,28.21
2018-09-05T18:32:49.559Z,28.09
2018-09-05T18:35:13.506Z,28.07
2018-09-05T18:37:37.427Z,28.25
2018-09-05T18:40:01.391Z,28.06
2018-09-05T18:42:25.383Z,27.98
2018-09-05T18:44:49.328Z,27.85
2018-09-05T18:47:13.276Z,27.86
2018-09-05T18:49:37.226Z,27.65
2018-09-05T18:52:01.250Z,27.79
2018-09-05T18:54:25.899Z,27.61
2018-09-05T18:56:50.103Z,27.36
2018-09-05T18:59:14.099Z,27.37
2018-09-05T19:01:38.034Z,27.35
2018-09-05T19:04:03.455Z,27.29
2018-09-05T19:06:27.364Z,27.02
2018-09-05T19:08:51.327Z,27.07
2018-09-05T19:11:15.315Z,27.09
2018-09-05T19:13:40.090Z,27.11
2018-09-05T19:16:04.009Z,26.78
2018-09-05T19:18:28.112Z,26.62
2018-09-05T19:20:52.038Z,26.88
2018-09-05T19:23:15.968Z,26.78
2018-09-05T19:25:39.911Z,26.84
2018-09-05T19:28:03.789Z,26.58
2018-09-05T19:30:27.984Z,26.35
2018-09-05T19:32:52.543Z,26.41
2018-09-05T19:35:16.532Z,26.47
2018-09-05T19:37:40.451Z,26.34
2018-09-05T19:40:04.436Z,26.23
2018-09-05T19:42:28.592Z,26.05
2018-09-05T19:44:52.487Z,25.81
2018-09-05T19:47:16.483Z,25.87
2018-09-05T19:49:40.426Z,26.13
2018-09-05T19:52:04.365Z,25.86
2018-09-05T19:54:28.397Z,25.94
2018-09-05T19:56:52.434Z,25.62
2018-09-05T19:59:16.415Z,25.65
2018-09-05T20:01:40.425Z,25.88
2018-09-05T20:04:04.851Z,25.73
2018-09-05T20:06:28.892Z,25.92
2018-09-05T20:08:52.793Z,25.81
2018-09-05T20:11:16.740Z,25.48
2018-09-05T20:13:40.678Z,25.44
2018-09-05T20:16:04.642Z,25.50
2018-09-05T20:18:28.673Z,25.44
2018-09-05T20:20:52.613Z,25.38
2018-09-05T20:23:16.514Z,25.46
2018-09-05T20:25:40.545Z,25.34
2018-09-05T20:28:04.492Z,25.34
2018-09-05T20:30:28.427Z,25.30
2018-09-05T20:32:52.480Z,25.27
2018-09-05T20:35:16.394Z,25.32
2018-09-05T20:37:40.305Z,25.26
2018-09-05T20:40:04.482Z,25.29
2018-09-05T20:42:28.374Z,25.14
2018-09-05T20:44:52.292Z,25.18
2018-09-05T20:47:16.242Z,25.11
2018-09-05T20:49:40.157Z,25.11
2018-09-05T20:52:04.114Z,24.98
2018-09-05T20:54:28.026Z,25.05
2018-09-05T20:56:52.032Z,24.88
2018-09-05T20:59:15.980Z,24.96
2018-09-05T21:01:39.855Z,24.90
2018-09-05T21:04:03.758Z,24.94
2018-09-05T21:06:27.648Z,24.87
2018-09-05T21:08:51.696Z,24.83
2018-09-05T21:11:15.590Z,24.81
2018-09-05T21:13:39.490Z,24.79
2018-09-05T21:16:03.404Z,24.65
2018-09-05T21:18:27.279Z,24.62
2018-09-05T21:20:51.266Z,24.57
2018-09-05T21:23:15.158Z,24.56
2018-09-05T21:25:39.100Z,24.52
2018-09-05T21:28:03.129Z,24.46
2018-09-05T21:32:42.690Z,24.40
2018-09-05T21:35:06.720Z,24.38
2018-09-05T21:37:30.772Z,24.43
2018-09-05T21:39:54.659Z,24.31
2018-09-05T21:42:18.603Z,24.20
2018-09-05T21:44:42.504Z,24.33
2018-09-05T21:47:06.385Z,24.11
2018-09-05T21:49:30.410Z,24.08
2018-09-05T21:51:54.484Z,24.01
2018-09-05T21:54:18.390Z,24.00
2018-09-05T21:56:42.340Z,23.89
2018-09-05T21:59:06.269Z,23.91
2018-09-05T22:01:30.543Z,23.78
2018-09-05T22:03:54.547Z,23.75
2018-09-05T22:06:18.468Z,23.76
2018-09-05T22:08:42.388Z,23.83
2018-09-05T22:11:11.625Z,23.71
2018-09-05T22:13:35.553Z,23.72
2018-09-05T22:15:59.430Z,23.67
2018-09-05T22:18:23.334Z,23.65
2018-09-05T22:20:47.204Z,23.60
2018-09-05T22:23:11.172Z,23.48
2018-09-05T22:25:35.106Z,23.45
2018-09-05T22:27:59.013Z,23.48
2018-09-05T22:30:22.977Z,23.48
2018-09-05T22:32:46.903Z,23.46
2018-09-05T22:35:10.758Z,23.46
2018-09-05T22:37:34.676Z,23.34
2018-09-05T22:39:58.647Z,23.12
2018-09-05T22:42:22.554Z,23.29
2018-09-05T22:44:57.652Z,23.32
2018-09-05T22:47:32.911Z,23.31
2018-09-05T22:50:34.808Z,23.22
2018-09-05T22:53:27.278Z,23.20
2018-09-05T22:56:07.251Z,23.11
2018-09-05T23:00:45.022Z,23.19
2018-09-05T23:03:23.675Z,22.98
2018-09-05T23:08:05.483Z,22.92
2018-09-05T23:10:40.513Z,22.88
2018-09-05T23:13:15.764Z,22.84
2018-09-05T23:15:50.867Z,22.87
2018-09-05T23:18:25.797Z,22.76
2018-09-05T23:21:25.442Z,22.76
2018-09-05T23:24:02.951Z,22.80
2018-09-05T23:26:27.089Z,22.65
2018-09-05T23:28:50.999Z,22.92
2018-09-05T23:31:14.879Z,22.81
2018-09-05T23:33:38.769Z,22.57
2018-09-05T23:36:02.702Z,22.81
2018-09-05T23:38:26.772Z,22.57
2018-09-05T23:40:50.637Z,22.54
2018-09-05T23:43:14.560Z,22.57
2018-09-05T23:45:38.570Z,22.45
2018-09-05T23:48:02.441Z,22.38
2018-09-05T23:50:26.291Z,22.27
2018-09-05T23:52:50.718Z,22.30
2018-09-05T23:55:14.615Z,22.30
2018-09-05T23:57:38.488Z,22.37
